»·PEaware :: N4QS KPIR-KCPR

N4QS :: KPIR-KCPR

FLIGHT INFORMATION

Flight Status: Arrived
Operator: Privately registered:
United States
More flights under this callsign
Pilot: Anonymous 36068 (36068)
Aircraft: BEECH AIRCRAFT PREMIER
(PRM1)
More flights by this aircraft type
Origin: KPIR Pierre Regl
United States
Destination: KCPR Natrona Co Intl
United States
More flights between these airports :: More routes between these airports
Route: PIR DDY
File this flight plan on PilotEdge
Remarks:
Altitude:
(Current/Filed)
26,000ft
Speed:
(Current/Filed)
400kts
Departed: 29-Oct-21 09:30 AM
Arrived: 29-Oct-21 10:27 AM
Distance/Time
Traveled:
282nm/0:56
Distance/Time
To Go:
Arrived

Flight Plot

Page will automatically refresh every two minutes.

Flight plan parsing failed; only flown route is shown


Map Options




Map Legend


Flown Route
Filed Route
Departure Airport
Arrival Airport
Navaid (VOR, NDB)
Fix

Horizontal Profiles

Position Reports

Time Latitude Longitude Heading Altitude Ground
Speed
29-Oct-21 09:28 44.385650 -100.299137 358 1740ft 9kts
29-Oct-21 09:29 44.392400 -100.260889 75 2498ft 183kts
29-Oct-21 09:30 44.387188 -100.184801 153 5109ft 249kts
29-Oct-21 09:31 44.345944 -100.242137 284 7746ft 284kts
29-Oct-21 09:33 44.359531 -100.353779 256 10276ft 305kts
29-Oct-21 09:34 44.338068 -100.470103 255 12778ft 314kts
29-Oct-21 09:35 44.316053 -100.588498 255 15277ft 316kts
29-Oct-21 09:36 44.294054 -100.706073 255 17766ft 312kts
29-Oct-21 09:37 44.272376 -100.821220 255 20250ft 302kts
29-Oct-21 09:38 44.251459 -100.931673 255 22723ft 288kts
29-Oct-21 09:39 44.231770 -101.035058 255 25178ft 266kts
29-Oct-21 09:40 44.212330 -101.136594 255 26130ft 297kts
29-Oct-21 09:41 44.188826 -101.258650 255 26126ft 353kts
29-Oct-21 09:42 44.161779 -101.398147 255 26123ft 391kts
29-Oct-21 09:43 44.132262 -101.549259 255 26122ft 416kts
29-Oct-21 09:44 44.101029 -101.707885 254 26120ft 432kts
29-Oct-21 09:45 44.068867 -101.869905 254 26117ft 432kts
29-Oct-21 09:46 44.037043 -102.028931 254 26118ft 426kts
29-Oct-21 09:47 44.005218 -102.186705 254 26118ft 422kts
29-Oct-21 09:48 43.973494 -102.342754 254 26118ft 421kts
29-Oct-21 09:49 43.941509 -102.498875 254 26118ft 420kts
29-Oct-21 09:50 43.909475 -102.654037 253 26118ft 419kts
29-Oct-21 09:51 43.877150 -102.809411 253 26118ft 419kts
29-Oct-21 09:52 43.844568 -102.964813 253 26118ft 419kts
29-Oct-21 09:53 43.811891 -103.119531 253 26118ft 419kts
29-Oct-21 09:54 43.779010 -103.274059 253 26118ft 419kts
29-Oct-21 09:55 43.745997 -103.428063 253 26118ft 419kts
29-Oct-21 09:56 43.712603 -103.582731 253 26118ft 419kts
29-Oct-21 09:57 43.679099 -103.736752 253 26118ft 419kts
29-Oct-21 09:58 43.645318 -103.890919 253 26118ft 419kts
29-Oct-21 09:59 43.611443 -104.044401 253 26118ft 419kts
29-Oct-21 09:59 43.582957 -104.172614 253 26118ft 419kts
29-Oct-21 10:01 43.542936 -104.351469 253 26118ft 419kts
29-Oct-21 10:02 43.508363 -104.504796 253 24738ft 414kts
29-Oct-21 10:02 43.480847 -104.626057 253 24113ft 378kts
29-Oct-21 10:03 43.450674 -104.758257 252 23153ft 361kts
29-Oct-21 10:05 43.416269 -104.908034 252 20226ft 345kts
29-Oct-21 10:06 43.387412 -105.032878 252 17732ft 342kts
29-Oct-21 10:06 43.363542 -105.135616 252 15976ft 327kts
29-Oct-21 10:07 43.338201 -105.244164 252 15938ft 289kts
29-Oct-21 10:09 43.309017 -105.368527 252 15917ft 255kts
29-Oct-21 10:09 43.292796 -105.437347 252 15926ft 207kts
29-Oct-21 10:10 43.275594 -105.510105 252 15934ft 196kts
29-Oct-21 10:11 43.258398 -105.582602 252 15577ft 222kts
29-Oct-21 10:12 43.235478 -105.678865 251 13171ft 298kts
29-Oct-21 10:13 43.211559 -105.778885 251 10651ft 261kts
29-Oct-21 10:14 43.191555 -105.862196 251 9920ft 192kts
29-Oct-21 10:15 43.174441 -105.924253 243 9945ft 178kts
29-Oct-21 10:16 43.150652 -105.989964 243 9937ft 197kts
29-Oct-21 10:17 43.125354 -106.059321 243 9140ft 218kts
29-Oct-21 10:18 43.098410 -106.132997 243 7931ft 200kts
29-Oct-21 10:19 43.075252 -106.196165 243 7963ft 183kts
29-Oct-21 10:20 43.052385 -106.258403 243 7934ft 180kts
29-Oct-21 10:21 43.020997 -106.307496 224 6977ft 160kts
29-Oct-21 10:22 42.989799 -106.348619 224 6934ft 153kts
29-Oct-21 10:23 42.958578 -106.389619 224 6575ft 159kts
29-Oct-21 10:24 42.930001 -106.427102 224 5811ft 132kts
29-Oct-21 10:25 42.905094 -106.459702 224 5332ft 76kts
29-Oct-21 10:26 42.902150 -106.461585 140 5329ft 0kts
29-Oct-21 10:27 42.902928 -106.459094 90 5329ft 5kts
29-Oct-21 10:28 42.902768 -106.458457 132 5330ft 0kts

Navigation Log

Ident Type
Flight plan parsing failed, navigation log unavailable